Latest Weather Observations for Legendre Island

IDW60801

Issued at 1:05 pm WST Friday 25 July 2014 (issued every 30 minutes, with the page automatically refreshed every 10 minutes)

About weather observations | Map of weather stations | Latest weather observations for WA | Other Formats
Station Details ID: 004095 Name: LEGENDRE ISLAND Lat: -20.36 Lon: 116.84 Height: 29.0 m
Data from the previous 72 hours. | See also: Recent months for locations in Western Australia
Date/Time
WST
Temp
°C
App
Temp
°C
Dew
Point
Rel
Hum
%
Delta-T
°C
Wind Press
QNH
hPa
Press
MSL
hPa
Rain
since 9 am
mm
Dir
 
Spd
km/h
Gust
km/h
Spd
kts
Gust
kts
25/01:00pm 20.9 15.0 7.5 42 6.9 E 28 35 15 19 1020.3 1020.2 -
25/12:30pm 20.8 14.9 9.1 47 6.2 E 30 39 16 21 1020.7 - -
25/12:00pm 20.4 14.0 8.7 47 6.1 E 32 39 17 21 1021.2 1021.1 -
25/11:30am 20.6 14.0 8.6 46 6.3 E 33 41 18 22 1021.6 - -
25/11:00am 20.5 13.9 8.5 46 6.3 E 33 41 18 22 1021.8 1021.7 -
25/10:30am 20.4 12.6 8.1 45 6.4 E 39 46 21 25 1021.8 - -
25/10:00am 20.3 12.1 8.0 45 6.4 E 41 48 22 26 1021.8 1021.7 -
25/09:30am 20.1 11.4 6.1 40 7.0 E 41 46 22 25 1021.8 - -
25/09:00am 20.0 12.1 7.7 45 6.3 E 39 48 21 26 1021.7 1021.6 -
25/08:30am 20.1 11.8 7.8 45 6.3 E 41 46 22 25 1021.2 - -
25/08:00am 19.7 11.7 9.0 50 5.6 E 41 46 22 25 1020.8 1020.7 -
25/07:30am 19.3 11.7 8.9 51 5.4 E 39 48 21 26 1020.3 - -
25/07:00am 18.7 12.1 10.0 57 4.6 E 35 43 19 23 1019.7 1019.6 -
25/06:30am 18.5 11.3 9.3 55 4.8 ESE 37 44 20 24 1019.3 - -
25/06:00am 18.5 11.7 10.6 60 4.2 ESE 37 44 20 24 1018.7 1018.6 -
25/05:30am 19.2 11.9 11.7 62 4.1 E 41 46 22 25 1017.8 - -
25/05:00am 19.3 11.6 10.3 56 4.8 E 41 46 22 25 1017.5 1017.4 -
25/04:30am 19.0 12.9 10.3 57 4.7 ESE 33 41 18 22 1017.9 - -
25/04:00am 17.5 12.8 9.4 59 4.2 ESE 24 32 13 17 1018.1 1018.0 -
25/03:30am 17.3 12.5 9.0 58 4.3 SE 24 30 13 16 1018.4 - -
25/03:00am 16.2 12.0 9.8 66 3.3 SE 22 26 12 14 1018.5 1018.4 -
25/02:30am 16.5 12.9 10.6 68 3.1 SE 20 22 11 12 1018.8 - -
25/02:00am 17.8 13.1 9.2 57 4.5 SE 24 30 13 16 1018.7 1018.6 -
25/01:30am 17.5 13.1 8.9 57 4.5 SE 22 28 12 15 1018.7 - -
25/01:00am 17.6 13.5 8.7 56 4.6 SE 20 24 11 13 1018.9 1018.8 -
25/12:30am 17.8 13.7 8.6 55 4.7 SE 20 24 11 13 1019.0 - -
25/12:00am 20.5 15.8 10.6 53 5.4 ESE 26 32 14 17 1019.0 1018.9 -
 
Date/Time
WST
Temp
°C
App
Temp
°C
Dew
Point
Rel
Hum
%
Delta-T
°C
Wind Press
QNH
hPa
Press
MSL
hPa
Rain
since 9 am
mm
Dir
 
Spd
km/h
Gust
km/h
Spd
kts
Gust
kts
24/11:30pm 20.7 15.4 9.9 50 5.8 E 28 33 15 18 1019.0 - -
24/11:00pm 20.8 14.5 8.8 46 6.3 E 32 35 17 19 1018.8 1018.7 -
24/10:30pm 21.1 14.7 7.0 40 7.2 E 30 33 16 18 1018.9 - -
24/10:00pm 21.3 14.9 6.8 39 7.4 E 30 33 16 18 1019.0 1018.9 -
24/09:30pm 21.0 15.6 8.0 43 6.8 E 26 32 14 17 1019.1 - -
24/09:00pm 20.3 16.5 8.9 48 6.0 ESE 19 24 10 13 1019.2 1019.1 -
24/08:30pm 20.9 16.8 6.1 38 7.4 ESE 17 22 9 12 1018.9 - -
24/08:00pm 20.9 17.5 7.5 42 6.9 E 15 19 8 10 1018.7 1018.6 -
24/07:30pm 20.8 18.1 8.8 46 6.3 ENE 13 17 7 9 1018.4 - -
24/07:00pm 20.7 17.9 8.4 45 6.4 E 13 15 7 8 1018.2 1018.1 -
24/06:30pm 20.7 17.9 8.7 46 6.3 E 13 19 7 10 1017.8 - -
24/06:00pm 20.9 16.6 6.8 40 7.2 ENE 19 20 10 11 1017.5 1017.4 -
24/05:30pm 21.1 16.5 6.6 39 7.4 ENE 20 24 11 13 1017.3 - -
24/05:00pm 21.4 17.0 6.5 38 7.5 ENE 19 22 10 12 1017.4 1017.3 -
24/04:30pm 21.6 17.0 6.7 38 7.6 ENE 20 24 11 13 1017.5 - -
24/04:00pm 22.0 17.2 7.4 39 7.5 ENE 22 26 12 14 1017.6 1017.5 -
24/03:30pm 22.3 17.4 6.9 37 7.9 ENE 22 26 12 14 1017.5 - -
24/03:00pm 22.5 17.6 6.7 36 8.1 E 22 26 12 14 1018.0 1017.9 -
24/02:30pm 22.3 16.7 5.3 33 8.5 E 24 32 13 17 1017.9 - -
24/02:00pm 22.2 16.1 6.4 36 8.0 E 28 33 15 18 1018.2 1018.1 -
24/01:30pm 22.3 16.3 6.9 37 7.9 E 28 35 15 19 1018.4 - -
24/01:00pm 22.2 15.0 6.0 35 8.2 E 33 39 18 21 1018.7 1018.6 -
24/12:30pm 22.2 15.3 7.2 38 7.7 E 33 41 18 22 1019.1 - -
24/12:00pm 22.3 15.3 6.9 37 7.9 E 33 39 18 21 1019.6 1019.5 -
24/11:30am 21.8 15.1 8.3 42 7.1 ESE 33 43 18 23 1019.7 - -
24/11:00am 21.7 15.1 9.9 47 6.4 ESE 35 43 19 23 1020.1 1020.0 -
24/10:30am 21.3 14.0 8.6 44 6.7 ESE 37 46 20 25 1020.2 - -
24/10:00am 21.0 13.3 8.6 45 6.5 ESE 39 43 21 23 1020.2 1020.1 -
24/09:30am 21.0 13.7 10.2 50 5.9 ESE 39 44 21 24 1020.2 - -
24/09:00am 20.6 13.9 9.5 49 5.9 ESE 35 41 19 22 1020.2 1020.1 -
24/08:30am 19.6 13.8 9.5 52 5.4 ESE 30 37 16 20 1019.8 - -
24/08:00am 18.6 14.3 9.4 55 4.8 ESE 22 32 12 17 1019.6 1019.5 -
24/07:30am 17.2 12.8 8.9 58 4.3 SE 22 26 12 14 1019.2 - -
24/07:00am 16.0 11.9 8.7 62 3.7 SE 20 24 11 13 1018.8 1018.7 -
24/06:30am 15.4 10.8 8.2 62 3.6 SE 22 24 12 13 1018.6 - -
24/06:00am 15.7 11.1 8.2 61 3.8 SE 22 24 12 13 1018.2 1018.1 -
24/05:30am 15.3 11.1 8.3 63 3.5 SE 20 24 11 13 1018.0 - -
24/05:00am 15.7 11.9 9.1 65 3.4 SE 19 24 10 13 1017.7 1017.6 -
24/04:30am 15.7 12.1 11.9 78 2.1 SE 22 24 12 13 1017.6 - -
24/04:00am 16.2 13.5 12.9 81 1.8 SSE 19 22 10 12 1017.6 1017.5 -
24/03:30am 15.8 13.5 13.1 84 1.5 SSE 17 20 9 11 1017.5 - -
24/03:00am 16.0 14.4 14.0 88 1.1 SSE 15 15 8 8 1017.5 1017.4 -
24/02:30am 16.1 14.9 14.1 88 1.1 S 13 15 7 8 1017.6 - -
24/02:00am 16.3 15.1 14.0 86 1.3 S 13 15 7 8 1017.6 1017.5 -
24/01:30am 16.7 15.3 13.4 81 1.9 S 13 17 7 9 1017.7 - -
24/01:00am 17.2 16.5 14.3 83 1.7 S 11 13 6 7 1017.8 1017.7 -
24/12:30am 17.0 16.4 14.6 86 1.4 S 11 13 6 7 1017.9 - -
24/12:00am 17.4 16.5 14.9 85 1.4 SSW 13 15 7 8 1017.9 1017.8 -
 
Date/Time
WST
Temp
°C
App
Temp
°C
Dew
Point
Rel
Hum
%
Delta-T
°C
Wind Press
QNH
hPa
Press
MSL
hPa
Rain
since 9 am
mm
Dir
 
Spd
km/h
Gust
km/h
Spd
kts
Gust
kts
23/11:30pm 17.9 16.8 14.2 79 2.1 SW 13 13 7 7 1017.9 - -
23/11:00pm 17.8 16.1 13.5 76 2.4 SW 15 15 8 8 1018.0 1017.9 -
23/10:30pm 17.8 16.1 13.5 76 2.4 SSW 15 15 8 8 1018.0 - -
23/10:00pm 17.8 15.9 13.1 74 2.6 SSW 15 15 8 8 1018.1 1018.0 -
23/09:30pm 18.4 15.9 12.4 68 3.3 SW 17 17 9 9 1018.1 - -
23/09:00pm 18.5 16.1 12.5 68 3.3 SW 17 20 9 11 1018.0 1017.9 -
23/08:30pm 18.8 15.9 12.3 66 3.6 SW 19 20 10 11 1017.9 - -
23/08:00pm 18.5 16.0 12.3 67 3.4 SW 17 19 9 10 1017.8 1017.7 -
23/07:30pm 19.0 17.9 10.8 59 4.4 NE 7 7 4 4 1017.6 - -
23/07:00pm 19.2 18.2 10.2 56 4.8 NE 6 7 3 4 1017.3 1017.2 -
23/06:30pm 20.7 20.0 8.4 45 6.4 NE 2 4 1 2 1016.9 - -
23/06:00pm 21.0 19.6 8.9 46 6.4 NE 6 7 3 4 1016.8 1016.7 -
23/05:30pm 21.7 20.1 7.9 41 7.2 NE 6 7 3 4 1016.6 - -
23/05:00pm 22.1 19.4 8.9 43 7.0 ENE 13 15 7 8 1016.4 1016.3 -
23/04:30pm 22.7 20.4 9.1 42 7.3 ENE 11 13 6 7 1016.4 - -
23/04:00pm 23.6 22.0 8.8 39 7.9 ENE 7 9 4 5 1016.3 1016.2 -
23/03:30pm 23.4 20.8 9.4 41 7.6 ENE 13 17 7 9 1016.3 - -
23/03:00pm 23.6 20.4 9.9 42 7.5 E 17 20 9 11 1016.3 1016.2 -
23/02:30pm 23.5 19.7 9.1 40 7.8 E 19 22 10 12 1016.6 - -
23/02:00pm 23.4 19.4 9.0 40 7.7 E 20 26 11 14 1016.9 1016.8 -
23/01:30pm 23.3 18.0 8.6 39 7.8 E 26 30 14 16 1017.0 - -
23/01:00pm 23.0 17.4 8.7 40 7.6 E 28 33 15 18 1017.2 1017.1 -
23/12:30pm 22.6 16.2 8.7 41 7.4 E 32 35 17 19 1017.7 - -
23/12:00pm 23.1 17.1 8.8 40 7.6 ESE 30 35 16 19 1018.5 1018.4 -
23/11:30am 22.3 14.9 6.9 37 7.9 ESE 35 43 19 23 1018.9 - -
23/11:00am 21.8 13.7 6.9 38 7.6 ESE 39 46 21 25 1019.2 1019.1 -
23/10:30am 21.5 13.3 8.1 42 7.0 ESE 41 50 22 27 1019.6 - -
23/10:00am 20.9 12.8 6.8 40 7.1 ESE 39 50 21 27 1019.8 1019.7 -
23/09:30am 20.2 11.2 7.2 43 6.6 ESE 44 52 24 28 1019.7 - -
23/09:00am 19.8 11.9 7.9 46 6.1 ESE 39 48 21 26 1019.7 1019.6 -
23/08:30am 19.6 12.8 7.0 44 6.4 SE 32 39 17 21 1019.4 - -
23/08:00am 18.6 13.3 8.6 52 5.2 SE 26 33 14 18 1018.8 1018.7 -
23/07:30am 17.8 12.4 7.8 52 5.1 SE 26 32 14 17 1018.2 - -
23/07:00am 17.0 11.6 7.9 55 4.6 SE 26 33 14 18 1018.0 1017.9 -
23/06:30am 17.2 11.3 7.5 53 4.9 SSE 28 35 15 19 1017.7 - -
23/06:00am 17.2 11.8 7.8 54 4.7 SSE 26 32 14 17 1017.4 1017.3 -
23/05:30am 17.2 12.2 8.1 55 4.6 SSE 24 30 13 16 1017.3 - -
23/05:00am 17.2 12.7 8.4 56 4.5 SSE 22 28 12 15 1017.2 1017.1 -
23/04:30am 17.5 12.8 7.8 53 4.9 SSE 22 28 12 15 1017.2 - -
23/04:00am 18.1 13.1 8.1 52 5.1 SSE 24 32 13 17 1016.9 1016.8 -
23/03:30am 18.2 12.8 7.9 51 5.3 SSE 26 33 14 18 1016.7 - -
23/03:00am 18.4 13.0 7.8 50 5.4 SSE 26 32 14 17 1016.7 1016.6 -
23/02:30am 18.6 12.8 8.0 50 5.4 SSE 28 33 15 18 1016.8 - -
23/02:00am 18.8 13.4 7.9 49 5.6 SSE 26 32 14 17 1016.8 1016.7 -
23/01:30am 18.7 13.6 7.5 48 5.7 SSE 24 30 13 16 1016.9 - -
23/01:00am 17.9 13.4 8.5 54 4.8 S 22 24 12 13 1017.0 1016.9 -
23/12:30am 18.3 13.8 8.6 53 5.0 S 22 26 12 14 1017.1 - -
23/12:00am 18.6 14.0 8.3 51 5.3 SSE 22 28 12 15 1017.2 1017.1 -
 
Date/Time
WST
Temp
°C
App
Temp
°C
Dew
Point
Rel
Hum
%
Delta-T
°C
Wind Press
QNH
hPa
Press
MSL
hPa
Rain
since 9 am
mm
Dir
 
Spd
km/h
Gust
km/h
Spd
kts
Gust
kts
22/11:30pm 18.6 14.5 8.8 53 5.1 SSE 20 24 11 13 1017.2 - -
22/11:00pm 18.4 13.9 8.4 52 5.2 SSE 22 26 12 14 1017.4 1017.3 -
22/10:30pm 18.7 14.6 7.8 49 5.6 SSE 19 24 10 13 1017.3 - -
22/10:00pm 18.5 14.5 8.2 51 5.3 S 19 24 10 13 1017.2 1017.1 -
22/09:30pm 18.6 15.4 9.9 57 4.6 SSE 17 20 9 11 1017.1 - -
22/09:00pm 18.4 15.9 9.7 57 4.6 SE 13 19 7 10 1016.9 1016.8 -
22/08:30pm 20.2 17.0 10.0 52 5.5 SE 17 22 9 12 1016.8 - -
22/08:00pm 19.9 16.0 9.5 51 5.5 S 20 24 11 13 1016.3 1016.2 -
22/07:30pm 19.7 16.9 11.2 58 4.7 S 17 20 9 11 1016.1 - -
22/07:00pm 20.6 18.6 15.4 72 3.1 SW 20 20 11 11 1015.7 1015.6 -
22/06:30pm 20.9 18.6 15.7 72 3.1 WSW 22 28 12 15 1015.2 - -
22/06:00pm 21.1 18.3 15.4 70 3.4 WSW 24 30 13 16 1015.0 1015.0 -
22/05:30pm 21.7 18.9 15.3 67 3.8 WSW 24 30 13 16 1014.8 - -
22/05:00pm 22.3 18.7 14.2 60 4.7 WSW 26 32 14 17 1014.7 1014.7 -
22/04:30pm 22.9 18.7 13.4 55 5.5 WSW 28 33 15 18 1014.8 - -
22/04:00pm 23.4 19.0 13.0 52 6.0 WSW 28 33 15 18 1014.6 1014.6 -
22/03:30pm 24.0 19.8 11.0 44 7.3 WSW 24 32 13 17 1014.7 - -
22/03:00pm 24.7 20.1 6.4 31 9.5 WSW 20 24 11 13 1014.9 1014.9 -
22/02:30pm 24.4 19.8 8.0 35 8.7 WSW 22 26 12 14 1015.1 - -
22/02:00pm 24.4 20.0 7.5 34 8.9 WSW 20 24 11 13 1015.6 1015.5 -
22/01:30pm 24.3 20.1 9.8 40 7.9 WSW 22 26 12 14 1016.0 - -

Other Formats:

Comma delimited format used in spreadsheet applications
http://www.bom.gov.au/fwo/IDW60801/IDW60801.94307.axf

JavaScript Object Notation format (JSON) in row-major order
http://www.bom.gov.au/fwo/IDW60801/IDW60801.94307.json